sensor_id;sensor_type;location;lat;lon;timestamp;temperature;humidity
30379;DHT22;17168;49.164;9.060;2024-01-06T02:28:59;6.80;99.90
30379;DHT22;17168;49.164;9.060;2024-01-06T03:45:46;6.50;99.90
30379;DHT22;17168;49.164;9.060;2024-01-06T03:48:19;6.50;99.90
30379;DHT22;17168;49.164;9.060;2024-01-06T03:50:52;6.50;99.90
30379;DHT22;17168;49.164;9.060;2024-01-06T03:53:26;6.50;99.90
30379;DHT22;17168;49.164;9.060;2024-01-06T03:56:02;6.50;99.90
30379;DHT22;17168;49.164;9.060;2024-01-06T03:58:40;6.50;99.90
30379;DHT22;17168;49.164;9.060;2024-01-06T04:01:15;6.50;99.90
30379;DHT22;17168;49.164;9.060;2024-01-06T04:03:56;6.50;99.90
30379;DHT22;17168;49.164;9.060;2024-01-06T04:06:31;6.50;99.90
30379;DHT22;17168;49.164;9.060;2024-01-06T04:09:05;6.40;99.90
30379;DHT22;17168;49.164;9.060;2024-01-06T04:11:41;6.40;99.90
30379;DHT22;17168;49.164;9.060;2024-01-06T04:14:15;6.40;99.90
30379;DHT22;17168;49.164;9.060;2024-01-06T04:16:51;6.40;99.90
30379;DHT22;17168;49.164;9.060;2024-01-06T04:19:29;6.30;99.90
30379;DHT22;17168;49.164;9.060;2024-01-06T04:22:02;6.40;99.90
30379;DHT22;17168;49.164;9.060;2024-01-06T04:24:43;6.40;99.90
30379;DHT22;17168;49.164;9.060;2024-01-06T04:27:25;6.30;99.90
30379;DHT22;17168;49.164;9.060;2024-01-06T04:29:58;6.30;99.90
30379;DHT22;17168;49.164;9.060;2024-01-06T04:32:34;6.30;99.90
30379;DHT22;17168;49.164;9.060;2024-01-06T04:35:09;6.40;99.90
30379;DHT22;17168;49.164;9.060;2024-01-06T04:37:42;6.30;99.90
30379;DHT22;17168;49.164;9.060;2024-01-06T04:40:17;6.30;99.90
30379;DHT22;17168;49.164;9.060;2024-01-06T04:42:50;6.30;99.90
30379;DHT22;17168;49.164;9.060;2024-01-06T04:45:23;6.40;99.90
30379;DHT22;17168;49.164;9.060;2024-01-06T04:48:03;6.30;99.90
30379;DHT22;17168;49.164;9.060;2024-01-06T04:50:36;6.40;99.90
30379;DHT22;17168;49.164;9.060;2024-01-06T04:53:11;6.40;99.90
30379;DHT22;17168;49.164;9.060;2024-01-06T04:55:44;6.40;99.90
30379;DHT22;17168;49.164;9.060;2024-01-06T04:58:16;6.40;99.90
30379;DHT22;17168;49.164;9.060;2024-01-06T05:00:49;6.40;99.90
30379;DHT22;17168;49.164;9.060;2024-01-06T05:03:26;6.40;99.90
30379;DHT22;17168;49.164;9.060;2024-01-06T05:05:59;6.40;99.90
30379;DHT22;17168;49.164;9.060;2024-01-06T05:08:31;6.40;99.90
30379;DHT22;17168;49.164;9.060;2024-01-06T05:11:04;6.40;99.90
30379;DHT22;17168;49.164;9.060;2024-01-06T05:13:40;6.40;99.90
30379;DHT22;17168;49.164;9.060;2024-01-06T05:16:12;6.40;99.90
30379;DHT22;17168;49.164;9.060;2024-01-06T05:18:55;6.40;99.90
30379;DHT22;17168;49.164;9.060;2024-01-06T05:21:28;6.40;99.90
30379;DHT22;17168;49.164;9.060;2024-01-06T05:24:01;6.40;99.90
30379;DHT22;17168;49.164;9.060;2024-01-06T05:26:33;6.40;99.90
30379;DHT22;17168;49.164;9.060;2024-01-06T05:29:06;6.40;99.90
30379;DHT22;17168;49.164;9.060;2024-01-06T05:31:38;6.40;99.90
30379;DHT22;17168;49.164;9.060;2024-01-06T05:34:14;6.40;99.90
30379;DHT22;17168;49.164;9.060;2024-01-06T05:36:46;6.40;99.90
30379;DHT22;17168;49.164;9.060;2024-01-06T05:39:19;6.40;99.90
30379;DHT22;17168;49.164;9.060;2024-01-06T05:41:51;6.40;99.90
30379;DHT22;17168;49.164;9.060;2024-01-06T05:44:23;6.30;99.90
30379;DHT22;17168;49.164;9.060;2024-01-06T05:46:56;6.40;99.90
30379;DHT22;17168;49.164;9.060;2024-01-06T05:49:31;6.40;99.90
30379;DHT22;17168;49.164;9.060;2024-01-06T05:52:06;6.40;99.90
30379;DHT22;17168;49.164;9.060;2024-01-06T05:54:40;6.40;99.90
30379;DHT22;17168;49.164;9.060;2024-01-06T05:57:13;6.40;99.90
30379;DHT22;17168;49.164;9.060;2024-01-06T05:59:46;6.40;99.90
30379;DHT22;17168;49.164;9.060;2024-01-06T06:02:18;6.40;99.90
30379;DHT22;17168;49.164;9.060;2024-01-06T06:04:53;6.30;99.90
30379;DHT22;17168;49.164;9.060;2024-01-06T06:07:25;6.40;99.90
30379;DHT22;17168;49.164;9.060;2024-01-06T06:09:58;6.40;99.90
30379;DHT22;17168;49.164;9.060;2024-01-06T06:12:30;6.40;99.90
30379;DHT22;17168;49.164;9.060;2024-01-06T06:15:04;6.40;99.90
30379;DHT22;17168;49.164;9.060;2024-01-06T06:17:39;6.40;99.90
30379;DHT22;17168;49.164;9.060;2024-01-06T06:20:14;6.50;99.90
30379;DHT22;17168;49.164;9.060;2024-01-06T06:22:46;6.40;99.90
30379;DHT22;17168;49.164;9.060;2024-01-06T06:25:19;6.50;99.90
30379;DHT22;17168;49.164;9.060;2024-01-06T06:27:51;6.50;99.90
30379;DHT22;17168;49.164;9.060;2024-01-06T06:30:24;6.50;99.90
30379;DHT22;17168;49.164;9.060;2024-01-06T06:32:56;6.50;99.90
30379;DHT22;17168;49.164;9.060;2024-01-06T06:35:31;6.60;99.90
30379;DHT22;17168;49.164;9.060;2024-01-06T06:38:04;6.60;99.90
30379;DHT22;17168;49.164;9.060;2024-01-06T06:40:36;6.60;99.90
30379;DHT22;17168;49.164;9.060;2024-01-06T06:43:08;6.60;99.90
30379;DHT22;17168;49.164;9.060;2024-01-06T06:45:41;6.60;99.90
30379;DHT22;17168;49.164;9.060;2024-01-06T06:48:16;6.60;99.90
30379;DHT22;17168;49.164;9.060;2024-01-06T06:50:51;6.60;99.90
30379;DHT22;17168;49.164;9.060;2024-01-06T06:53:24;6.60;99.90
30379;DHT22;17168;49.164;9.060;2024-01-06T06:55:56;6.60;99.90
30379;DHT22;17168;49.164;9.060;2024-01-06T06:58:29;6.60;99.90
30379;DHT22;17168;49.164;9.060;2024-01-06T07:01:01;6.60;99.90
30379;DHT22;17168;49.164;9.060;2024-01-06T07:03:34;6.60;99.90
30379;DHT22;17168;49.164;9.060;2024-01-06T07:06:11;6.60;99.90
30379;DHT22;17168;49.164;9.060;2024-01-06T07:08:44;6.60;99.90
30379;DHT22;17168;49.164;9.060;2024-01-06T07:11:16;6.60;99.90
30379;DHT22;17168;49.164;9.060;2024-01-06T07:13:53;6.60;99.90
30379;DHT22;17168;49.164;9.060;2024-01-06T07:16:26;6.60;99.90
30379;DHT22;17168;49.164;9.060;2024-01-06T07:18:58;6.60;99.90
30379;DHT22;17168;49.164;9.060;2024-01-06T07:21:33;6.60;99.90
30379;DHT22;17168;49.164;9.060;2024-01-06T07:24:06;6.60;99.90
30379;DHT22;17168;49.164;9.060;2024-01-06T07:26:38;6.60;99.90
30379;DHT22;17168;49.164;9.060;2024-01-06T07:29:10;6.70;99.90
30379;DHT22;17168;49.164;9.060;2024-01-06T07:31:43;6.70;99.90
30379;DHT22;17168;49.164;9.060;2024-01-06T07:34:15;6.70;99.90
30379;DHT22;17168;49.164;9.060;2024-01-06T07:36:51;6.70;99.90
30379;DHT22;17168;49.164;9.060;2024-01-06T07:39:23;6.70;99.90
30379;DHT22;17168;49.164;9.060;2024-01-06T07:41:56;6.70;99.90
30379;DHT22;17168;49.164;9.060;2024-01-06T07:44:28;6.70;99.90
30379;DHT22;17168;49.164;9.060;2024-01-06T07:47:00;6.70;99.90
30379;DHT22;17168;49.164;9.060;2024-01-06T07:49:34;6.70;99.90
30379;DHT22;17168;49.164;9.060;2024-01-06T07:52:09;6.70;99.90
30379;DHT22;17168;49.164;9.060;2024-01-06T07:54:41;6.70;99.90
30379;DHT22;17168;49.164;9.060;2024-01-06T07:57:13;6.70;99.90
30379;DHT22;17168;49.164;9.060;2024-01-06T07:59:46;6.70;99.90
30379;DHT22;17168;49.164;9.060;2024-01-06T08:02:19;6.80;99.90
30379;DHT22;17168;49.164;9.060;2024-01-06T08:04:51;6.80;99.90
30379;DHT22;17168;49.164;9.060;2024-01-06T08:07:26;6.80;99.90
30379;DHT22;17168;49.164;9.060;2024-01-06T08:09:58;6.80;99.90
30379;DHT22;17168;49.164;9.060;2024-01-06T08:12:31;6.80;99.90
30379;DHT22;17168;49.164;9.060;2024-01-06T08:15:04;6.80;99.90
30379;DHT22;17168;49.164;9.060;2024-01-06T08:17:37;6.80;99.90
30379;DHT22;17168;49.164;9.060;2024-01-06T08:20:11;6.80;99.90
30379;DHT22;17168;49.164;9.060;2024-01-06T08:22:46;6.80;99.90
30379;DHT22;17168;49.164;9.060;2024-01-06T08:25:18;6.80;99.90
30379;DHT22;17168;49.164;9.060;2024-01-06T08:27:50;6.80;99.90
30379;DHT22;17168;49.164;9.060;2024-01-06T08:30:22;6.80;99.90
30379;DHT22;17168;49.164;9.060;2024-01-06T08:32:56;6.80;99.90
30379;DHT22;17168;49.164;9.060;2024-01-06T08:35:28;6.80;99.90
30379;DHT22;17168;49.164;9.060;2024-01-06T08:38:03;6.80;99.90
30379;DHT22;17168;49.164;9.060;2024-01-06T08:40:36;6.80;99.90
30379;DHT22;17168;49.164;9.060;2024-01-06T08:43:08;6.80;99.90
30379;DHT22;17168;49.164;9.060;2024-01-06T08:45:41;6.80;99.90
30379;DHT22;17168;49.164;9.060;2024-01-06T08:48:13;6.90;99.90
30379;DHT22;17168;49.164;9.060;2024-01-06T08:50:47;6.90;99.90
30379;DHT22;17168;49.164;9.060;2024-01-06T08:53:23;6.90;99.90
30379;DHT22;17168;49.164;9.060;2024-01-06T08:55:55;6.90;99.90
30379;DHT22;17168;49.164;9.060;2024-01-06T08:58:27;6.90;99.90
30379;DHT22;17168;49.164;9.060;2024-01-06T09:00:59;6.90;99.90
30379;DHT22;17168;49.164;9.060;2024-01-06T09:03:32;6.90;99.90
30379;DHT22;17168;49.164;9.060;2024-01-06T09:06:04;6.90;99.90
30379;DHT22;17168;49.164;9.060;2024-01-06T09:08:40;6.90;99.90
30379;DHT22;17168;49.164;9.060;2024-01-06T09:11:12;6.90;99.90
30379;DHT22;17168;49.164;9.060;2024-01-06T09:13:44;6.90;99.90
30379;DHT22;17168;49.164;9.060;2024-01-06T09:16:17;6.90;99.90
30379;DHT22;17168;49.164;9.060;2024-01-06T09:18:49;6.90;99.90
30379;DHT22;17168;49.164;9.060;2024-01-06T09:21:21;6.90;99.90
30379;DHT22;17168;49.164;9.060;2024-01-06T09:23:56;6.90;99.90
30379;DHT22;17168;49.164;9.060;2024-01-06T09:26:28;6.90;99.90
30379;DHT22;17168;49.164;9.060;2024-01-06T09:29:01;6.90;99.90
30379;DHT22;17168;49.164;9.060;2024-01-06T09:31:33;7.00;99.90
30379;DHT22;17168;49.164;9.060;2024-01-06T09:34:09;7.00;99.90
30379;DHT22;17168;49.164;9.060;2024-01-06T09:36:42;7.00;99.90
30379;DHT22;17168;49.164;9.060;2024-01-06T09:39:17;7.00;99.90
30379;DHT22;17168;49.164;9.060;2024-01-06T09:41:49;7.00;99.90
30379;DHT22;17168;49.164;9.060;2024-01-06T09:44:22;7.00;99.90
30379;DHT22;17168;49.164;9.060;2024-01-06T09:46:55;7.00;99.90
30379;DHT22;17168;49.164;9.060;2024-01-06T09:49:31;7.00;99.90
30379;DHT22;17168;49.164;9.060;2024-01-06T09:52:05;7.10;99.90
30379;DHT22;17168;49.164;9.060;2024-01-06T09:54:48;7.10;99.90
30379;DHT22;17168;49.164;9.060;2024-01-06T09:57:23;7.10;99.90
30379;DHT22;17168;49.164;9.060;2024-01-06T09:59:56;7.10;99.90
30379;DHT22;17168;49.164;9.060;2024-01-06T10:02:29;7.10;99.90
30379;DHT22;17168;49.164;9.060;2024-01-06T10:05:04;7.10;99.90
30379;DHT22;17168;49.164;9.060;2024-01-06T10:07:36;7.10;99.90
30379;DHT22;17168;49.164;9.060;2024-01-06T10:10:11;7.10;99.90
30379;DHT22;17168;49.164;9.060;2024-01-06T10:12:44;7.10;99.90
30379;DHT22;17168;49.164;9.060;2024-01-06T10:15:16;7.10;99.90
30379;DHT22;17168;49.164;9.060;2024-01-06T10:17:49;7.10;99.90
30379;DHT22;17168;49.164;9.060;2024-01-06T10:20:22;7.10;99.90
30379;DHT22;17168;49.164;9.060;2024-01-06T10:22:54;7.10;99.90
30379;DHT22;17168;49.164;9.060;2024-01-06T10:25:29;7.10;99.90
30379;DHT22;17168;49.164;9.060;2024-01-06T10:28:01;7.10;99.90
30379;DHT22;17168;49.164;9.060;2024-01-06T10:30:37;7.10;99.90
30379;DHT22;17168;49.164;9.060;2024-01-06T10:33:10;7.20;99.90
30379;DHT22;17168;49.164;9.060;2024-01-06T10:35:43;7.10;99.90
30379;DHT22;17168;49.164;9.060;2024-01-06T10:38:16;7.20;99.90
30379;DHT22;17168;49.164;9.060;2024-01-06T10:41:01;7.20;99.90
30379;DHT22;17168;49.164;9.060;2024-01-06T10:43:41;7.20;99.90
30379;DHT22;17168;49.164;9.060;2024-01-06T10:46:15;7.20;99.90
30379;DHT22;17168;49.164;9.060;2024-01-06T10:48:50;7.30;99.90
30379;DHT22;17168;49.164;9.060;2024-01-06T10:51:25;7.20;99.90
30379;DHT22;17168;49.164;9.060;2024-01-06T10:54:01;7.30;99.90
30379;DHT22;17168;49.164;9.060;2024-01-06T10:56:37;7.30;99.90
30379;DHT22;17168;49.164;9.060;2024-01-06T10:59:13;7.30;99.90
30379;DHT22;17168;49.164;9.060;2024-01-06T11:01:47;7.30;99.90
30379;DHT22;17168;49.164;9.060;2024-01-06T11:04:20;7.30;99.90
30379;DHT22;17168;49.164;9.060;2024-01-06T11:06:54;7.40;99.90
30379;DHT22;17168;49.164;9.060;2024-01-06T11:09:31;7.40;99.90
30379;DHT22;17168;49.164;9.060;2024-01-06T11:12:08;7.40;99.90
30379;DHT22;17168;49.164;9.060;2024-01-06T11:14:41;7.40;99.90
30379;DHT22;17168;49.164;9.060;2024-01-06T11:17:13;7.40;99.90
30379;DHT22;17168;49.164;9.060;2024-01-06T11:20:13;7.40;99.90
30379;DHT22;17168;49.164;9.060;2024-01-06T11:22:46;7.40;99.90
30379;DHT22;17168;49.164;9.060;2024-01-06T11:25:19;7.50;99.90
30379;DHT22;17168;49.164;9.060;2024-01-06T11:27:54;7.40;99.90
30379;DHT22;17168;49.164;9.060;2024-01-06T11:30:29;7.50;99.90
30379;DHT22;17168;49.164;9.060;2024-01-06T11:33:04;7.50;99.90
30379;DHT22;17168;49.164;9.060;2024-01-06T11:35:37;7.50;99.90
30379;DHT22;17168;49.164;9.060;2024-01-06T11:38:11;7.50;99.90
30379;DHT22;17168;49.164;9.060;2024-01-06T11:40:44;7.60;99.90
30379;DHT22;17168;49.164;9.060;2024-01-06T11:43:27;7.60;99.90
30379;DHT22;17168;49.164;9.060;2024-01-06T11:45:59;7.60;99.90
30379;DHT22;17168;49.164;9.060;2024-01-06T11:48:33;7.60;99.90
30379;DHT22;17168;49.164;9.060;2024-01-06T11:51:06;7.60;99.90
30379;DHT22;17168;49.164;9.060;2024-01-06T11:53:38;7.60;99.90
30379;DHT22;17168;49.164;9.060;2024-01-06T11:56:11;7.60;99.90
30379;DHT22;17168;49.164;9.060;2024-01-06T11:58:48;7.70;99.90
30379;DHT22;17168;49.164;9.060;2024-01-06T12:01:24;7.70;99.90
30379;DHT22;17168;49.164;9.060;2024-01-06T12:03:57;7.70;99.90
30379;DHT22;17168;49.164;9.060;2024-01-06T12:06:29;7.70;99.90
30379;DHT22;17168;49.164;9.060;2024-01-06T12:09:05;7.70;99.90
30379;DHT22;17168;49.164;9.060;2024-01-06T12:11:37;7.70;99.90
30379;DHT22;17168;49.164;9.060;2024-01-06T12:14:12;7.70;99.90
30379;DHT22;17168;49.164;9.060;2024-01-06T12:16:44;7.60;99.90
30379;DHT22;17168;49.164;9.060;2024-01-06T12:19:17;7.60;99.90
30379;DHT22;17168;49.164;9.060;2024-01-06T12:21:49;7.60;99.90
30379;DHT22;17168;49.164;9.060;2024-01-06T12:24:21;7.60;99.90
30379;DHT22;17168;49.164;9.060;2024-01-06T12:26:55;7.60;99.90
30379;DHT22;17168;49.164;9.060;2024-01-06T12:29:30;7.70;99.90
30379;DHT22;17168;49.164;9.060;2024-01-06T12:32:05;7.70;99.90
30379;DHT22;17168;49.164;9.060;2024-01-06T12:34:37;7.70;99.90
30379;DHT22;17168;49.164;9.060;2024-01-06T12:37:13;7.70;99.90
30379;DHT22;17168;49.164;9.060;2024-01-06T12:39:47;7.70;99.90
30379;DHT22;17168;49.164;9.060;2024-01-06T12:42:19;7.70;99.90
30379;DHT22;17168;49.164;9.060;2024-01-06T12:44:56;7.70;99.90
30379;DHT22;17168;49.164;9.060;2024-01-06T12:47:28;7.70;99.90
30379;DHT22;17168;49.164;9.060;2024-01-06T12:50:01;7.70;99.90
30379;DHT22;17168;49.164;9.060;2024-01-06T12:52:33;7.70;99.90
30379;DHT22;17168;49.164;9.060;2024-01-06T12:55:06;7.70;99.90
30379;DHT22;17168;49.164;9.060;2024-01-06T12:57:40;7.80;99.90
30379;DHT22;17168;49.164;9.060;2024-01-06T13:00:16;7.70;99.90
30379;DHT22;17168;49.164;9.060;2024-01-06T13:02:48;7.80;99.90
30379;DHT22;17168;49.164;9.060;2024-01-06T13:05:21;7.80;99.90
30379;DHT22;17168;49.164;9.060;2024-01-06T13:07:53;7.80;99.90
30379;DHT22;17168;49.164;9.060;2024-01-06T13:10:25;7.80;99.90
30379;DHT22;17168;49.164;9.060;2024-01-06T13:12:58;7.90;99.90
30379;DHT22;17168;49.164;9.060;2024-01-06T13:15:32;7.90;99.90
30379;DHT22;17168;49.164;9.060;2024-01-06T13:18:05;7.90;99.90
30379;DHT22;17168;49.164;9.060;2024-01-06T13:20:37;7.90;99.90
30379;DHT22;17168;49.164;9.060;2024-01-06T13:23:12;7.90;99.90
30379;DHT22;17168;49.164;9.060;2024-01-06T13:25:44;7.90;99.90
30379;DHT22;17168;49.164;9.060;2024-01-06T13:28:18;7.90;99.90
30379;DHT22;17168;49.164;9.060;2024-01-06T13:30:53;7.90;99.90
30379;DHT22;17168;49.164;9.060;2024-01-06T13:33:25;7.90;99.90
30379;DHT22;17168;49.164;9.060;2024-01-06T13:35:58;7.90;99.90
30379;DHT22;17168;49.164;9.060;2024-01-06T13:38:30;8.00;99.90
30379;DHT22;17168;49.164;9.060;2024-01-06T13:41:03;8.00;99.90
30379;DHT22;17168;49.164;9.060;2024-01-06T13:43:35;8.00;99.90
30379;DHT22;17168;49.164;9.060;2024-01-06T13:46:10;8.00;99.90
30379;DHT22;17168;49.164;9.060;2024-01-06T13:48:42;8.00;99.90
30379;DHT22;17168;49.164;9.060;2024-01-06T13:51:15;8.00;99.90
30379;DHT22;17168;49.164;9.060;2024-01-06T13:53:47;8.00;99.90
30379;DHT22;17168;49.164;9.060;2024-01-06T13:56:19;8.00;99.90
30379;DHT22;17168;49.164;9.060;2024-01-06T13:58:51;8.00;99.90
30379;DHT22;17168;49.164;9.060;2024-01-06T14:01:26;8.00;99.90
30379;DHT22;17168;49.164;9.060;2024-01-06T14:03:59;8.00;99.90
30379;DHT22;17168;49.164;9.060;2024-01-06T14:06:32;8.00;99.90
30379;DHT22;17168;49.164;9.060;2024-01-06T14:09:06;8.00;99.90
30379;DHT22;17168;49.164;9.060;2024-01-06T14:11:38;8.00;99.90
30379;DHT22;17168;49.164;9.060;2024-01-06T14:14:10;8.00;99.90
30379;DHT22;17168;49.164;9.060;2024-01-06T14:16:45;8.00;99.90
30379;DHT22;17168;49.164;9.060;2024-01-06T14:19:18;8.00;99.90
30379;DHT22;17168;49.164;9.060;2024-01-06T14:21:51;8.00;99.90
30379;DHT22;17168;49.164;9.060;2024-01-06T14:24:23;8.10;99.90
30379;DHT22;17168;49.164;9.060;2024-01-06T14:26:57;8.10;99.90
30379;DHT22;17168;49.164;9.060;2024-01-06T14:29:29;8.10;99.90
30379;DHT22;17168;49.164;9.060;2024-01-06T14:32:05;8.10;99.90
30379;DHT22;17168;49.164;9.060;2024-01-06T14:34:37;8.10;99.90
30379;DHT22;17168;49.164;9.060;2024-01-06T14:37:09;8.10;99.90
30379;DHT22;17168;49.164;9.060;2024-01-06T14:39:42;8.10;99.90
30379;DHT22;17168;49.164;9.060;2024-01-06T14:42:14;8.10;99.90
30379;DHT22;17168;49.164;9.060;2024-01-06T14:44:48;8.10;99.90
30379;DHT22;17168;49.164;9.060;2024-01-06T14:47:23;8.10;99.90
30379;DHT22;17168;49.164;9.060;2024-01-06T14:49:55;8.10;99.90
30379;DHT22;17168;49.164;9.060;2024-01-06T14:52:27;8.10;99.90
30379;DHT22;17168;49.164;9.060;2024-01-06T14:55:00;8.10;99.90
30379;DHT22;17168;49.164;9.060;2024-01-06T14:57:32;8.10;99.90
30379;DHT22;17168;49.164;9.060;2024-01-06T15:00:06;8.00;99.90
30379;DHT22;17168;49.164;9.060;2024-01-06T15:02:41;8.00;99.90
30379;DHT22;17168;49.164;9.060;2024-01-06T15:05:17;8.00;99.90
30379;DHT22;17168;49.164;9.060;2024-01-06T15:07:50;8.00;99.90
30379;DHT22;17168;49.164;9.060;2024-01-06T15:10:22;8.00;99.90
30379;DHT22;17168;49.164;9.060;2024-01-06T15:12:55;8.00;99.90
30379;DHT22;17168;49.164;9.060;2024-01-06T15:15:27;8.00;99.90
30379;DHT22;17168;49.164;9.060;2024-01-06T15:18:03;8.00;99.90
30379;DHT22;17168;49.164;9.060;2024-01-06T15:20:35;8.00;99.90
30379;DHT22;17168;49.164;9.060;2024-01-06T15:23:07;8.00;99.90
30379;DHT22;17168;49.164;9.060;2024-01-06T15:25:40;8.00;99.90
30379;DHT22;17168;49.164;9.060;2024-01-06T15:28:14;8.10;99.90
30379;DHT22;17168;49.164;9.060;2024-01-06T15:30:46;8.10;99.90
30379;DHT22;17168;49.164;9.060;2024-01-06T15:33:21;8.10;99.90
30379;DHT22;17168;49.164;9.060;2024-01-06T15:35:54;8.10;99.90
30379;DHT22;17168;49.164;9.060;2024-01-06T15:38:26;8.10;99.90
30379;DHT22;17168;49.164;9.060;2024-01-06T15:40:59;8.10;99.90
30379;DHT22;17168;49.164;9.060;2024-01-06T15:43:34;8.10;99.90
30379;DHT22;17168;49.164;9.060;2024-01-06T15:46:07;8.10;99.90
30379;DHT22;17168;49.164;9.060;2024-01-06T15:48:42;8.10;99.90
30379;DHT22;17168;49.164;9.060;2024-01-06T15:51:14;8.00;99.90
30379;DHT22;17168;49.164;9.060;2024-01-06T15:53:47;8.00;99.90
30379;DHT22;17168;49.164;9.060;2024-01-06T15:56:19;8.00;99.90
30379;DHT22;17168;49.164;9.060;2024-01-06T15:58:51;8.00;99.90
30379;DHT22;17168;49.164;9.060;2024-01-06T16:01:26;8.00;99.90
30379;DHT22;17168;49.164;9.060;2024-01-06T16:04:01;8.00;99.90
30379;DHT22;17168;49.164;9.060;2024-01-06T16:06:34;8.00;99.90
30379;DHT22;17168;49.164;9.060;2024-01-06T16:09:08;8.00;99.90
30379;DHT22;17168;49.164;9.060;2024-01-06T16:11:42;8.00;99.90
30379;DHT22;17168;49.164;9.060;2024-01-06T16:14:15;8.00;99.90
30379;DHT22;17168;49.164;9.060;2024-01-06T16:16:47;8.00;99.90
30379;DHT22;17168;49.164;9.060;2024-01-06T16:19:22;8.00;99.90
30379;DHT22;17168;49.164;9.060;2024-01-06T16:21:54;8.00;99.90
30379;DHT22;17168;49.164;9.060;2024-01-06T16:24:45;8.00;99.90
30379;DHT22;17168;49.164;9.060;2024-01-06T16:27:17;8.00;99.90
30379;DHT22;17168;49.164;9.060;2024-01-06T16:29:50;7.90;99.90
30379;DHT22;17168;49.164;9.060;2024-01-06T16:32:22;7.90;99.90
30379;DHT22;17168;49.164;9.060;2024-01-06T16:34:57;8.00;99.90
30379;DHT22;17168;49.164;9.060;2024-01-06T16:37:31;7.90;99.90
30379;DHT22;17168;49.164;9.060;2024-01-06T16:40:04;7.90;99.90
30379;DHT22;17168;49.164;9.060;2024-01-06T16:42:38;7.90;99.90
30379;DHT22;17168;49.164;9.060;2024-01-06T16:45:10;7.90;99.90
30379;DHT22;17168;49.164;9.060;2024-01-06T16:47:43;7.90;99.90
30379;DHT22;17168;49.164;9.060;2024-01-06T16:50:18;7.90;99.90
30379;DHT22;17168;49.164;9.060;2024-01-06T16:52:51;7.90;99.90
30379;DHT22;17168;49.164;9.060;2024-01-06T16:55:23;7.90;99.90
30379;DHT22;17168;49.164;9.060;2024-01-06T16:57:55;7.90;99.90
30379;DHT22;17168;49.164;9.060;2024-01-06T17:00:31;7.90;99.90
30379;DHT22;17168;49.164;9.060;2024-01-06T17:03:04;7.90;99.90
30379;DHT22;17168;49.164;9.060;2024-01-06T17:05:39;7.90;99.90
30379;DHT22;17168;49.164;9.060;2024-01-06T17:08:11;7.90;99.90
30379;DHT22;17168;49.164;9.060;2024-01-06T17:10:44;7.90;99.90
30379;DHT22;17168;49.164;9.060;2024-01-06T17:13:16;7.90;99.90
30379;DHT22;17168;49.164;9.060;2024-01-06T17:15:49;7.90;99.90
30379;DHT22;17168;49.164;9.060;2024-01-06T17:18:21;7.90;99.90
30379;DHT22;17168;49.164;9.060;2024-01-06T17:20:56;7.80;99.90
30379;DHT22;17168;49.164;9.060;2024-01-06T17:23:29;7.80;99.90
30379;DHT22;17168;49.164;9.060;2024-01-06T17:26:01;7.80;99.90
30379;DHT22;17168;49.164;9.060;2024-01-06T17:28:35;7.80;99.90
30379;DHT22;17168;49.164;9.060;2024-01-06T17:31:07;7.80;99.90
30379;DHT22;17168;49.164;9.060;2024-01-06T17:33:40;7.70;99.90
30379;DHT22;17168;49.164;9.060;2024-01-06T17:36:15;7.70;99.90
30379;DHT22;17168;49.164;9.060;2024-01-06T17:38:48;7.70;99.90
30379;DHT22;17168;49.164;9.060;2024-01-06T17:41:21;7.70;99.90
30379;DHT22;17168;49.164;9.060;2024-01-06T17:43:54;7.70;99.90
30379;DHT22;17168;49.164;9.060;2024-01-06T17:46:29;7.70;99.90
30379;DHT22;17168;49.164;9.060;2024-01-06T17:49:01;7.70;99.90
30379;DHT22;17168;49.164;9.060;2024-01-06T17:51:37;7.70;99.90
30379;DHT22;17168;49.164;9.060;2024-01-06T17:54:09;7.60;99.90
30379;DHT22;17168;49.164;9.060;2024-01-06T17:56:42;7.60;99.90
30379;DHT22;17168;49.164;9.060;2024-01-06T17:59:14;7.60;99.90
30379;DHT22;17168;49.164;9.060;2024-01-06T18:01:46;7.60;99.90
30379;DHT22;17168;49.164;9.060;2024-01-06T18:04:19;7.60;99.90
30379;DHT22;17168;49.164;9.060;2024-01-06T18:06:54;7.70;99.90
30379;DHT22;17168;49.164;9.060;2024-01-06T18:09:26;7.70;99.90
30379;DHT22;17168;49.164;9.060;2024-01-06T18:12:00;7.70;99.90
30379;DHT22;17168;49.164;9.060;2024-01-06T18:14:32;7.70;99.90
30379;DHT22;17168;49.164;9.060;2024-01-06T18:17:08;7.70;99.90
30379;DHT22;17168;49.164;9.060;2024-01-06T18:19:40;7.70;99.90
30379;DHT22;17168;49.164;9.060;2024-01-06T18:22:15;7.70;99.90
30379;DHT22;17168;49.164;9.060;2024-01-06T18:24:47;7.70;99.90
30379;DHT22;17168;49.164;9.060;2024-01-06T18:27:20;7.70;99.90
30379;DHT22;17168;49.164;9.060;2024-01-06T18:29:52;7.70;99.90
30379;DHT22;17168;49.164;9.060;2024-01-06T18:32:25;7.70;99.90
30379;DHT22;17168;49.164;9.060;2024-01-06T18:34:57;7.70;99.90
30379;DHT22;17168;49.164;9.060;2024-01-06T18:37:32;7.70;99.90
30379;DHT22;17168;49.164;9.060;2024-01-06T18:40:05;7.70;99.90
30379;DHT22;17168;49.164;9.060;2024-01-06T18:42:38;7.70;99.90
30379;DHT22;17168;49.164;9.060;2024-01-06T18:45:10;7.70;99.90
30379;DHT22;17168;49.164;9.060;2024-01-06T18:47:42;7.70;99.90
30379;DHT22;17168;49.164;9.060;2024-01-06T18:50:17;7.70;99.90
30379;DHT22;17168;49.164;9.060;2024-01-06T18:52:54;7.70;99.90
30379;DHT22;17168;49.164;9.060;2024-01-06T18:55:26;7.80;99.90
30379;DHT22;17168;49.164;9.060;2024-01-06T18:57:58;7.70;99.90
30379;DHT22;17168;49.164;9.060;2024-01-06T19:00:32;7.70;99.90
30379;DHT22;17168;49.164;9.060;2024-01-06T19:03:05;7.70;99.90
30379;DHT22;17168;49.164;9.060;2024-01-06T19:05:37;7.70;99.90
30379;DHT22;17168;49.164;9.060;2024-01-06T19:08:12;7.70;99.90
30379;DHT22;17168;49.164;9.060;2024-01-06T19:10:45;7.70;99.90
30379;DHT22;17168;49.164;9.060;2024-01-06T19:13:17;7.70;99.90
30379;DHT22;17168;49.164;9.060;2024-01-06T19:15:49;7.70;99.90
30379;DHT22;17168;49.164;9.060;2024-01-06T19:18:21;7.70;99.90
30379;DHT22;17168;49.164;9.060;2024-01-06T19:20:54;7.70;99.90
30379;DHT22;17168;49.164;9.060;2024-01-06T19:23:29;7.80;99.90
30379;DHT22;17168;49.164;9.060;2024-01-06T19:26:01;7.80;99.90
30379;DHT22;17168;49.164;9.060;2024-01-06T19:28:34;7.80;99.90
30379;DHT22;17168;49.164;9.060;2024-01-06T19:31:07;7.80;99.90
30379;DHT22;17168;49.164;9.060;2024-01-06T19:33:39;7.80;99.90
30379;DHT22;17168;49.164;9.060;2024-01-06T19:36:11;7.80;99.90
30379;DHT22;17168;49.164;9.060;2024-01-06T19:38:47;7.80;99.90
30379;DHT22;17168;49.164;9.060;2024-01-06T19:41:20;7.80;99.90
30379;DHT22;17168;49.164;9.060;2024-01-06T19:43:52;7.80;99.90
30379;DHT22;17168;49.164;9.060;2024-01-06T19:46:24;7.80;99.90
30379;DHT22;17168;49.164;9.060;2024-01-06T19:48:56;7.80;99.90
30379;DHT22;17168;49.164;9.060;2024-01-06T19:51:33;7.80;99.90
30379;DHT22;17168;49.164;9.060;2024-01-06T19:54:08;7.80;99.90
30379;DHT22;17168;49.164;9.060;2024-01-06T19:56:43;7.80;99.90
30379;DHT22;17168;49.164;9.060;2024-01-06T19:59:15;7.90;99.90
30379;DHT22;17168;49.164;9.060;2024-01-06T20:01:48;7.80;99.90
30379;DHT22;17168;49.164;9.060;2024-01-06T20:04:20;7.90;99.90
30379;DHT22;17168;49.164;9.060;2024-01-06T20:06:52;7.90;99.90